Time;durP1;ratioP1;P1;durP2;ratioP2;P2;SDS_P1;SDS_P2;PMS_P1;PMS_P2;Temp;Humidity;BMP_temperature;BMP_pressure;BME280_temperature;BME280_humidity;BME280_pressure;Samples;Min_cycle;Max_cycle;Signal;HPM_P1;HPM_P2
2021/04/25 00:01:35;;;;;;;6.27;3.00;;;3.30;70.20;;;;;;5056907;28;20190;-87
2021/04/25 00:04:01;;;;;;;6.80;3.23;;;3.30;70.30;;;;;;5057107;28;20174;-88
2021/04/25 00:06:26;;;;;;;11.23;2.80;;;3.20;70.40;;;;;;5056031;28;20551;-88
2021/04/25 00:08:52;;;;;;;7.83;3.30;;;3.20;70.40;;;;;;5056883;28;20562;-87
2021/04/25 00:11:18;;;;;;;12.83;2.97;;;3.20;70.50;;;;;;5055720;28;20218;-89
2021/04/25 00:13:44;;;;;;;7.53;2.90;;;3.10;70.70;;;;;;5056347;28;20182;-89
2021/04/25 00:16:11;;;;;;;12.47;3.00;;;3.10;70.60;;;;;;5057715;28;20184;-89
2021/04/25 00:18:38;;;;;;;8.07;2.67;;;3.00;70.90;;;;;;5056402;28;20207;-89
2021/04/25 00:21:04;;;;;;;14.10;3.40;;;2.90;71.00;;;;;;5055544;28;20287;-87
2021/04/25 00:23:30;;;;;;;5.67;2.80;;;2.80;71.40;;;;;;5055080;28;20262;-87
2021/04/25 00:25:56;;;;;;;9.40;2.87;;;2.80;71.50;;;;;;5056337;28;20708;-88
2021/04/25 00:28:22;;;;;;;7.77;2.23;;;2.80;71.80;;;;;;5056941;28;20232;-89
2021/04/25 00:30:49;;;;;;;12.77;2.27;;;2.80;72.00;;;;;;5056699;28;20287;-89
2021/04/25 00:33:15;;;;;;;15.80;2.97;;;2.70;71.90;;;;;;5057745;28;20182;-88
2021/04/25 00:35:40;;;;;;;13.20;3.20;;;2.70;72.00;;;;;;5058263;28;20179;-89
2021/04/25 00:38:06;;;;;;;10.93;2.83;;;2.80;71.80;;;;;;5054739;28;20214;-89
2021/04/25 00:40:32;;;;;;;12.53;4.07;;;2.80;71.50;;;;;;5054409;28;20328;-88
2021/04/25 00:42:57;;;;;;;12.00;2.93;;;2.80;71.20;;;;;;5056197;28;20181;-89
2021/04/25 00:45:23;;;;;;;9.43;2.97;;;2.80;71.20;;;;;;5054588;28;20186;-89
2021/04/25 00:47:50;;;;;;;8.50;2.57;;;2.80;71.20;;;;;;5054712;28;20189;-89
2021/04/25 00:50:20;;;;;;;13.83;2.93;;;2.80;71.20;;;;;;5055947;28;20236;-88
2021/04/25 00:52:47;;;;;;;8.50;2.80;;;2.70;71.20;;;;;;5055904;28;20177;-89
2021/04/25 00:55:15;;;;;;;10.47;2.43;;;2.70;71.10;;;;;;5056184;28;20171;-88
2021/04/25 00:57:41;;;;;;;8.47;2.20;;;2.80;71.50;;;;;;5056971;28;20584;-88
2021/04/25 01:00:10;;;;;;;12.37;3.13;;;2.70;71.80;;;;;;5055261;28;20202;-88
2021/04/25 01:02:37;;;;;;;11.63;2.60;;;2.70;72.00;;;;;;5056795;28;20223;-89
2021/04/25 01:05:05;;;;;;;11.73;2.87;;;2.70;72.60;;;;;;5055783;28;20173;-89
2021/04/25 01:07:30;;;;;;;11.63;3.23;;;2.70;72.60;;;;;;5056151;28;20181;-88
2021/04/25 01:09:56;;;;;;;7.17;2.63;;;2.70;72.50;;;;;;5055772;28;20272;-89
2021/04/25 01:12:22;;;;;;;9.20;2.70;;;2.80;72.70;;;;;;5056615;28;20240;-89
2021/04/25 01:14:48;;;;;;;9.87;3.07;;;2.80;72.70;;;;;;5057260;28;20174;-89
2021/04/25 01:17:13;;;;;;;11.67;3.17;;;2.90;72.70;;;;;;5055507;28;20193;-89
2021/04/25 01:19:39;;;;;;;8.23;2.47;;;2.90;72.80;;;;;;5055342;28;20209;-88
2021/04/25 01:22:06;;;;;;;4.73;2.30;;;2.90;72.80;;;;;;5056433;28;20193;-88
2021/04/25 01:24:32;;;;;;;10.77;3.10;;;3.00;72.70;;;;;;5055175;28;20236;-88
2021/04/25 01:26:58;;;;;;;13.20;2.53;;;3.00;72.90;;;;;;5056584;28;20172;-88
2021/04/25 01:29:23;;;;;;;10.83;2.70;;;3.10;73.20;;;;;;5056423;28;20176;-89
2021/04/25 01:31:49;;;;;;;8.90;2.70;;;3.10;73.20;;;;;;5055263;28;20260;-89
2021/04/25 01:34:14;;;;;;;10.37;2.80;;;3.20;73.10;;;;;;5055058;28;20191;-89
2021/04/25 01:36:40;;;;;;;11.60;2.30;;;3.30;73.20;;;;;;5055183;28;20649;-89
2021/04/25 01:39:06;;;;;;;5.87;2.47;;;3.30;73.20;;;;;;5055418;28;20210;-89
2021/04/25 01:41:32;;;;;;;6.13;2.33;;;3.20;73.90;;;;;;5055990;28;20201;-89
2021/04/25 01:43:58;;;;;;;8.30;2.73;;;3.20;74.00;;;;;;5055323;28;20176;-88
2021/04/25 01:46:23;;;;;;;16.13;2.97;;;3.20;74.40;;;;;;5055789;28;20181;-89
2021/04/25 01:48:49;;;;;;;9.23;2.60;;;3.30;74.40;;;;;;5055321;28;20193;-89
2021/04/25 01:51:15;;;;;;;10.87;3.07;;;3.30;74.40;;;;;;5056003;28;20197;-89
2021/04/25 01:53:41;;;;;;;7.77;3.20;;;3.30;74.30;;;;;;5055484;28;20169;-89
2021/04/25 01:56:07;;;;;;;13.80;3.50;;;3.30;74.30;;;;;;5054491;28;20237;-89
2021/04/25 01:58:32;;;;;;;9.63;2.43;;;3.30;73.90;;;;;;5054728;28;20658;-89
2021/04/25 02:00:58;;;;;;;17.00;3.27;;;3.30;73.70;;;;;;5055002;28;20234;-89
2021/04/25 02:03:25;;;;;;;12.37;2.57;;;3.30;73.60;;;;;;5055625;28;20696;-89
2021/04/25 02:05:51;;;;;;;6.80;3.27;;;3.30;73.50;;;;;;5054510;28;20170;-89
2021/04/25 02:08:17;;;;;;;7.77;2.93;;;3.30;73.60;;;;;;5054088;28;20590;-89
2021/04/25 02:10:43;;;;;;;12.73;2.67;;;3.40;73.10;;;;;;5054608;28;20303;-89
2021/04/25 02:13:10;;;;;;;8.90;2.40;;;3.40;72.80;;;;;;5054257;28;20216;-88
2021/04/25 02:15:36;;;;;;;13.47;2.70;;;3.40;72.90;;;;;;5054690;28;20175;-89
2021/04/25 02:18:02;;;;;;;8.03;2.80;;;3.50;72.80;;;;;;5054277;28;20202;-88
2021/04/25 02:20:29;;;;;;;6.93;2.53;;;3.50;72.50;;;;;;5055332;28;20566;-89
2021/04/25 02:22:55;;;;;;;10.93;3.03;;;3.40;72.20;;;;;;5056123;28;20679;-89
2021/04/25 02:25:22;;;;;;;10.47;2.57;;;3.30;72.50;;;;;;5055320;28;20178;-89
2021/04/25 02:27:48;;;;;;;14.43;3.33;;;3.30;72.20;;;;;;5056311;28;20227;-88
2021/04/25 02:30:21;;;;;;;6.47;2.60;;;3.30;72.20;;;;;;5054390;28;20206;-89
2021/04/25 02:32:47;;;;;;;8.17;2.33;;;3.30;72.10;;;;;;5054659;28;20657;-88
2021/04/25 02:35:14;;;;;;;10.37;3.87;;;3.20;72.20;;;;;;5054463;28;20177;-89
2021/04/25 02:37:40;;;;;;;5.87;2.30;;;3.00;72.70;;;;;;5054380;28;20226;-89
2021/04/25 02:40:12;;;;;;;10.10;2.37;;;3.00;72.60;;;;;;5054753;28;20284;-88
2021/04/25 02:42:39;;;;;;;6.90;2.50;;;2.90;72.50;;;;;;5055135;28;20171;-89
2021/04/25 02:45:06;;;;;;;5.80;2.43;;;3.00;72.40;;;;;;5053903;28;20182;-89
2021/04/25 02:47:32;;;;;;;8.47;2.60;;;2.90;72.40;;;;;;5055297;28;20705;-89
2021/04/25 02:49:58;;;;;;;9.83;2.37;;;2.90;72.50;;;;;;5054499;28;20171;-89
2021/04/25 02:52:26;;;;;;;13.53;2.73;;;2.80;72.60;;;;;;5054124;28;20237;-89
2021/04/25 02:54:53;;;;;;;12.27;2.47;;;2.80;72.90;;;;;;5054305;28;20173;-89
2021/04/25 02:57:20;;;;;;;5.83;2.33;;;2.90;72.90;;;;;;5054414;28;20173;-89
2021/04/25 02:59:45;;;;;;;8.60;2.27;;;2.90;73.00;;;;;;5055137;28;20282;-89
2021/04/25 03:02:11;;;;;;;8.37;2.07;;;2.80;72.70;;;;;;5055591;28;20195;-89
2021/04/25 03:04:37;;;;;;;7.30;2.10;;;2.80;72.80;;;;;;5057708;28;20172;-89
2021/04/25 03:07:02;;;;;;;9.40;2.83;;;2.80;72.80;;;;;;5058016;28;20211;-89
2021/04/25 03:09:28;;;;;;;5.93;2.30;;;2.80;72.60;;;;;;5058041;28;20177;-89
2021/04/25 03:11:54;;;;;;;7.37;2.40;;;2.70;72.60;;;;;;5059330;28;20212;-89
2021/04/25 03:14:19;;;;;;;7.80;2.87;;;2.70;72.70;;;;;;5059470;28;20183;-89
2021/04/25 03:16:45;;;;;;;7.00;2.23;;;2.70;72.90;;;;;;5059636;28;20174;-89
2021/04/25 03:19:10;;;;;;;10.73;2.93;;;2.60;73.10;;;;;;5058165;28;20725;-89
2021/04/25 03:21:36;;;;;;;7.20;2.10;;;2.60;73.40;;;;;;5057957;28;20284;-88
2021/04/25 03:24:03;;;;;;;13.53;2.50;;;2.70;73.30;;;;;;5057785;28;20591;-89
2021/04/25 03:26:28;;;;;;;7.37;2.10;;;2.80;73.40;;;;;;5057882;28;20217;-88
2021/04/25 03:28:54;;;;;;;8.17;2.10;;;2.80;73.50;;;;;;5057933;28;20181;-89
2021/04/25 03:31:20;;;;;;;9.33;2.40;;;2.90;73.50;;;;;;5059089;28;20610;-89
2021/04/25 03:33:45;;;;;;;10.10;2.90;;;2.90;73.30;;;;;;5059205;28;20174;-88
2021/04/25 03:36:11;;;;;;;10.93;2.43;;;2.90;73.40;;;;;;5058630;28;20175;-89
2021/04/25 03:38:37;;;;;;;8.97;2.33;;;2.90;73.60;;;;;;5057108;28;20209;-88
2021/04/25 03:41:02;;;;;;;9.30;2.40;;;2.90;73.30;;;;;;5057075;28;20189;-89
2021/04/25 03:43:28;;;;;;;10.90;2.93;;;2.90;73.10;;;;;;5057486;28;20185;-89
2021/04/25 03:45:53;;;;;;;9.63;2.33;;;2.90;73.30;;;;;;5058742;28;20168;-89
2021/04/25 03:48:19;;;;;;;10.27;2.87;;;2.90;73.30;;;;;;5057555;28;20276;-89
2021/04/25 03:50:45;;;;;;;9.23;2.23;;;2.80;73.20;;;;;;5057152;28;20202;-88
2021/04/25 03:53:10;;;;;;;7.20;2.27;;;2.80;73.30;;;;;;5058670;28;20225;-89
2021/04/25 03:55:36;;;;;;;5.30;2.30;;;2.80;73.20;;;;;;5058881;28;20227;-89
2021/04/25 03:58:03;;;;;;;10.53;2.77;;;2.80;73.40;;;;;;5057266;28;20208;-89
2021/04/25 04:00:29;;;;;;;5.23;2.20;;;2.70;73.40;;;;;;5057263;28;20220;-89
2021/04/25 04:02:55;;;;;;;10.07;2.40;;;2.70;74.10;;;;;;5058618;28;20260;-89
2021/04/25 04:05:20;;;;;;;11.80;3.20;;;2.80;74.00;;;;;;5056717;28;20210;-89
2021/04/25 04:07:46;;;;;;;13.43;2.63;;;2.80;74.10;;;;;;5057229;28;20172;-89
2021/04/25 04:10:13;;;;;;;9.13;2.47;;;2.90;73.70;;;;;;5056855;28;20788;-89
2021/04/25 04:12:39;;;;;;;13.60;2.40;;;2.90;73.60;;;;;;5058814;28;20159;-88
2021/04/25 04:15:06;;;;;;;5.63;2.20;;;2.90;73.80;;;;;;5057352;28;20227;-89
2021/04/25 04:17:32;;;;;;;10.63;2.80;;;3.00;73.70;;;;;;5057706;28;20673;-89
2021/04/25 04:19:57;;;;;;;6.30;2.57;;;3.00;73.70;;;;;;5057968;28;20176;-88
2021/04/25 04:22:23;;;;;;;12.83;2.37;;;3.20;73.20;;;;;;5056657;28;20175;-88
2021/04/25 04:24:49;;;;;;;8.77;2.47;;;3.20;72.80;;;;;;5056765;28;20181;-89
2021/04/25 04:27:14;;;;;;;6.00;2.40;;;3.20;72.30;;;;;;5056759;28;20530;-89
2021/04/25 04:29:40;;;;;;;5.20;2.27;;;3.30;72.30;;;;;;5058364;28;20181;-89
2021/04/25 04:32:06;;;;;;;10.50;2.57;;;3.30;72.30;;;;;;5058587;28;20277;-89
2021/04/25 04:34:31;;;;;;;4.57;2.50;;;3.30;72.20;;;;;;5057204;28;20183;-89
2021/04/25 04:36:57;;;;;;;11.70;2.30;;;3.30;72.10;;;;;;5056627;28;20186;-89
2021/04/25 04:39:23;;;;;;;8.33;2.67;;;3.30;71.70;;;;;;5056687;28;20206;-89
2021/04/25 04:41:50;;;;;;;10.73;2.73;;;3.40;71.70;;;;;;5058133;28;20190;-89
2021/04/25 04:44:16;;;;;;;6.63;2.60;;;3.40;71.40;;;;;;5055967;28;20175;-89
2021/04/25 04:46:41;;;;;;;11.07;2.77;;;3.20;71.50;;;;;;5056538;28;20171;-89
2021/04/25 04:49:07;;;;;;;11.60;2.83;;;3.20;72.10;;;;;;5056186;28;20186;-89
2021/04/25 04:51:33;;;;;;;13.83;2.83;;;3.30;72.20;;;;;;5057251;28;20196;-89
2021/04/25 04:53:59;;;;;;;9.20;3.77;;;3.30;72.50;;;;;;5055952;28;20176;-88
2021/04/25 04:56:24;;;;;;;6.97;2.77;;;3.50;72.60;;;;;;5057608;28;20181;-89
2021/04/25 04:58:50;;;;;;;7.17;2.13;;;3.60;72.30;;;;;;5057290;28;20199;-89
2021/04/25 05:01:15;;;;;;;10.43;2.60;;;3.70;72.30;;;;;;5056267;28;20201;-89
2021/04/25 05:03:41;;;;;;;14.53;2.50;;;3.70;72.00;;;;;;5056469;28;20262;-88
2021/04/25 05:06:07;;;;;;;9.57;2.83;;;3.80;71.90;;;;;;5055884;28;20250;-88
2021/04/25 05:08:32;;;;;;;8.83;2.63;;;3.70;71.70;;;;;;5055533;28;20175;-89
2021/04/25 05:10:58;;;;;;;10.83;2.77;;;3.80;71.70;;;;;;5055812;28;20223;-89
2021/04/25 05:13:24;;;;;;;5.93;2.53;;;3.90;71.90;;;;;;5056056;28;20689;-89
2021/04/25 05:15:49;;;;;;;9.17;2.90;;;3.90;71.40;;;;;;5057707;28;20257;-89
2021/04/25 05:18:15;;;;;;;6.83;2.60;;;3.90;71.60;;;;;;5055755;28;20216;-89
2021/04/25 05:20:40;;;;;;;10.20;2.70;;;3.80;71.70;;;;;;5056715;28;20190;-89
2021/04/25 05:23:06;;;;;;;4.83;2.60;;;3.90;72.20;;;;;;5055463;28;20277;-89
2021/04/25 05:25:32;;;;;;;4.27;2.43;;;3.80;72.20;;;;;;5055537;28;20230;-89
2021/04/25 05:27:57;;;;;;;9.07;3.00;;;3.80;72.60;;;;;;5055956;28;20183;-89
2021/04/25 05:30:23;;;;;;;6.00;2.40;;;3.80;72.80;;;;;;5055608;28;20210;-89
2021/04/25 05:32:49;;;;;;;11.77;2.30;;;3.80;72.80;;;;;;5056578;28;20181;-89
2021/04/25 05:35:15;;;;;;;5.77;2.73;;;3.80;72.00;;;;;;5056815;28;20193;-89
2021/04/25 05:37:42;;;;;;;8.10;2.90;;;3.60;72.80;;;;;;5055554;28;20185;-89
2021/04/25 05:40:10;;;;;;;10.97;2.07;;;3.70;73.20;;;;;;5056206;28;20604;-88
2021/04/25 05:42:36;;;;;;;10.03;2.80;;;3.60;73.20;;;;;;5055749;28;20179;-89
2021/04/25 05:45:02;;;;;;;8.77;2.97;;;3.60;73.50;;;;;;5055077;28;20174;-89
2021/04/25 05:47:28;;;;;;;7.70;3.13;;;3.70;73.60;;;;;;5055286;28;20179;-88
2021/04/25 05:49:53;;;;;;;12.67;2.77;;;3.70;73.70;;;;;;5055427;28;20272;-89
2021/04/25 05:52:19;;;;;;;8.77;3.47;;;3.70;74.30;;;;;;5056466;28;20208;-89
2021/04/25 05:54:45;;;;;;;6.87;3.33;;;3.80;74.30;;;;;;5056687;28;20187;-89
2021/04/25 05:57:11;;;;;;;8.20;3.30;;;3.80;74.30;;;;;;5054400;28;20179;-89
2021/04/25 05:59:37;;;;;;;8.73;3.00;;;3.80;74.30;;;;;;5054995;28;20205;-89
2021/04/25 06:02:04;;;;;;;8.43;2.87;;;3.80;74.10;;;;;;5055071;28;20205;-89
2021/04/25 06:04:30;;;;;;;11.23;3.20;;;3.80;73.90;;;;;;5054876;28;20266;-89
2021/04/25 06:06:56;;;;;;;10.97;3.30;;;3.80;74.30;;;;;;5056109;28;20205;-89
2021/04/25 06:09:22;;;;;;;9.13;3.47;;;3.90;74.30;;;;;;5055881;28;20178;-89
2021/04/25 06:11:47;;;;;;;7.47;3.03;;;4.00;74.30;;;;;;5055714;28;20208;-89
2021/04/25 06:14:13;;;;;;;12.53;3.40;;;3.90;74.30;;;;;;5054034;28;20271;-89
2021/04/25 06:16:39;;;;;;;13.77;3.80;;;4.00;74.90;;;;;;5054481;28;20210;-89
2021/04/25 06:19:05;;;;;;;7.87;3.20;;;4.10;74.90;;;;;;5054230;28;20316;-89
2021/04/25 06:21:31;;;;;;;8.07;3.13;;;4.20;74.50;;;;;;5053531;28;20210;-89
2021/04/25 06:23:57;;;;;;;6.07;2.73;;;4.30;74.80;;;;;;5055217;28;20171;-89
2021/04/25 06:26:22;;;;;;;9.10;3.00;;;4.40;74.90;;;;;;5055413;28;20198;-88
2021/04/25 06:28:48;;;;;;;14.70;3.73;;;4.60;74.50;;;;;;5053754;28;20285;-89
2021/04/25 06:31:14;;;;;;;7.17;3.07;;;4.70;75.00;;;;;;5055366;28;20213;-89
2021/04/25 06:33:40;;;;;;;7.07;3.07;;;4.80;74.90;;;;;;5054050;28;20255;-89
2021/04/25 06:36:06;;;;;;;6.37;3.33;;;4.90;74.20;;;;;;5054049;28;20183;-89
2021/04/25 06:38:32;;;;;;;17.60;3.50;;;4.90;73.70;;;;;;5053806;28;20211;-89
2021/04/25 06:40:57;;;;;;;7.03;2.90;;;4.80;74.30;;;;;;5053359;28;20202;-89
2021/04/25 06:43:23;;;;;;;6.37;3.20;;;5.00;74.50;;;;;;5053932;28;20543;-89
2021/04/25 06:45:49;;;;;;;6.73;3.17;;;5.20;74.30;;;;;;5055104;28;20178;-89
2021/04/25 06:48:15;;;;;;;8.93;3.07;;;5.30;74.40;;;;;;5053777;28;20241;-89
2021/04/25 06:50:42;;;;;;;7.40;3.10;;;5.50;72.80;;;;;;5053858;28;20231;-88
2021/04/25 06:53:08;;;;;;;8.10;3.07;;;5.50;72.60;;;;;;5053375;28;20653;-89
2021/04/25 06:55:33;;;;;;;8.80;3.47;;;5.40;72.30;;;;;;5053263;28;20175;-89
2021/04/25 06:57:59;;;;;;;5.67;2.80;;;5.30;72.50;;;;;;5054412;28;20199;-89
2021/04/25 07:00:25;;;;;;;9.80;3.13;;;5.50;73.60;;;;;;5053390;28;20235;-89
2021/04/25 07:02:57;;;;;;;8.47;3.03;;;5.80;72.90;;;;;;5054475;28;20236;-89
2021/04/25 07:05:25;;;;;;;7.87;3.07;;;5.80;71.80;;;;;;5053733;28;20260;-89
2021/04/25 07:07:51;;;;;;;8.07;3.03;;;5.70;72.00;;;;;;5053215;28;20666;-89
2021/04/25 07:10:17;;;;;;;10.73;3.10;;;5.80;71.90;;;;;;5052406;28;20218;-89
2021/04/25 07:12:43;;;;;;;7.23;3.30;;;6.00;71.70;;;;;;5053177;28;20184;-89
2021/04/25 07:15:10;;;;;;;6.57;3.13;;;6.30;72.10;;;;;;5052672;28;20169;-89
2021/04/25 07:17:36;;;;;;;6.10;2.73;;;6.40;71.50;;;;;;5053966;28;20635;-89
2021/04/25 07:20:03;;;;;;;5.63;2.70;;;6.50;71.10;;;;;;5053010;28;20324;-89
2021/04/25 07:22:29;;;;;;;5.57;2.60;;;6.60;70.20;;;;;;5053113;28;20267;-89
2021/04/25 07:24:54;;;;;;;4.83;2.23;;;6.60;69.70;;;;;;5052508;28;20218;-89
2021/04/25 07:27:20;;;;;;;7.80;2.33;;;6.70;69.00;;;;;;5053936;28;20167;-90
2021/04/25 07:29:47;;;;;;;9.33;2.60;;;6.70;67.70;;;;;;5053599;28;20173;-89
2021/04/25 07:32:13;;;;;;;5.37;2.57;;;6.80;67.40;;;;;;5054466;28;20157;-89
2021/04/25 07:34:38;;;;;;;10.40;2.50;;;6.80;66.90;;;;;;5052864;28;20182;-89
2021/04/25 07:37:05;;;;;;;8.23;2.77;;;6.80;68.50;;;;;;5052590;28;20194;-89
2021/04/25 07:39:34;;;;;;;7.87;2.27;;;6.80;68.40;;;;;;5053513;28;20222;-89
2021/04/25 07:42:00;;;;;;;7.70;2.50;;;7.00;66.70;;;;;;5052437;28;20199;-89
2021/04/25 07:44:26;;;;;;;7.30;2.80;;;7.10;65.50;;;;;;5053817;28;20250;-89
2021/04/25 07:46:52;;;;;;;4.53;2.07;;;7.20;66.00;;;;;;5052228;28;20171;-89
2021/04/25 07:49:17;;;;;;;4.40;1.77;;;7.40;63.90;;;;;;5052420;28;20183;-89
2021/04/25 07:51:43;;;;;;;4.10;2.20;;;7.60;63.30;;;;;;5055082;28;20238;-89
2021/04/25 07:54:11;;;;;;;3.37;1.90;;;7.80;62.50;;;;;;5056602;28;20249;-88
2021/04/25 07:56:37;;;;;;;4.67;2.00;;;7.70;61.00;;;;;;5055802;28;20656;-88
2021/04/25 07:59:03;;;;;;;3.37;1.80;;;7.90;62.30;;;;;;5056278;28;20226;-89
2021/04/25 08:01:29;;;;;;;3.17;1.80;;;8.00;60.50;;;;;;5057219;28;20184;-89
2021/04/25 08:03:57;;;;;;;3.67;1.73;;;7.80;59.20;;;;;;5056717;28;20713;-89
2021/04/25 08:06:23;;;;;;;5.27;1.80;;;7.90;58.50;;;;;;5057645;28;20595;-88
2021/04/25 08:08:52;;;;;;;5.57;2.10;;;7.80;60.60;;;;;;5056256;28;20202;-88
2021/04/25 08:11:18;;;;;;;2.17;1.50;;;8.00;59.30;;;;;;5056147;28;20614;-89
2021/04/25 08:13:43;;;;;;;6.10;1.97;;;8.00;58.00;;;;;;5055914;28;20238;-89
2021/04/25 08:16:09;;;;;;;4.80;2.07;;;7.80;57.20;;;;;;5057126;28;20208;-90
2021/04/25 08:18:35;;;;;;;3.07;1.83;;;8.10;61.20;;;;;;5056763;28;20199;-90
2021/04/25 08:21:00;;;;;;;5.37;2.00;;;8.20;58.10;;;;;;5056790;28;20234;-89
2021/04/25 08:23:26;;;;;;;4.33;2.03;;;7.80;58.70;;;;;;5055826;28;20228;-89
2021/04/25 08:25:51;;;;;;;4.23;2.00;;;7.90;59.40;;;;;;5055633;28;20245;-90
2021/04/25 08:28:18;;;;;;;2.23;1.60;;;8.30;58.70;;;;;;5055282;28;20183;-89
2021/04/25 08:30:44;;;;;;;3.03;2.10;;;8.40;54.20;;;;;;5056888;28;20563;-89
2021/04/25 08:33:10;;;;;;;3.67;2.03;;;8.40;56.80;;;;;;5056749;28;20179;-90
2021/04/25 08:35:35;;;;;;;4.50;1.70;;;8.40;56.60;;;;;;5056111;28;20180;-89
2021/04/25 08:38:01;;;;;;;1.63;1.43;;;8.40;53.50;;;;;;5056937;28;20744;-89
2021/04/25 08:40:27;;;;;;;1.37;1.20;;;8.50;50.90;;;;;;5055973;28;20199;-89
2021/04/25 08:42:54;;;;;;;2.47;1.53;;;8.90;48.50;;;;;;5055585;28;20524;-89
2021/04/25 08:45:19;;;;;;;2.93;1.40;;;8.80;49.50;;;;;;5055145;28;20200;-89
2021/04/25 08:47:54;;;;;;;3.30;1.10;;;8.60;49.80;;;;;;5055272;28;20645;-89
2021/04/25 08:50:22;;;;;;;1.93;1.10;;;8.20;42.60;;;;;;5054960;28;20195;-88
2021/04/25 08:52:48;;;;;;;1.73;0.90;;;7.80;40.70;;;;;;5055674;28;20198;-89
2021/04/25 08:55:14;;;;;;;2.33;1.00;;;8.00;43.50;;;;;;5055315;28;20214;-89
2021/04/25 08:57:39;;;;;;;4.83;1.30;;;8.50;43.10;;;;;;5056513;28;20182;-89
2021/04/25 09:00:07;;;;;;;1.37;1.10;;;8.50;42.00;;;;;;5054810;28;20215;-89
2021/04/25 09:02:33;;;;;;;2.13;1.17;;;9.00;45.60;;;;;;5055902;28;20580;-89
2021/04/25 09:04:58;;;;;;;1.63;1.20;;;9.40;44.10;;;;;;5054612;28;20180;-89
2021/04/25 09:07:24;;;;;;;2.60;1.40;;;9.50;41.10;;;;;;5055233;28;20187;-89
2021/04/25 09:09:52;;;;;;;3.27;1.30;;;9.50;43.20;;;;;;5056210;28;20660;-89
2021/04/25 09:12:40;;;;;;;7.27;1.43;;;9.80;44.20;;;;;;5055456;28;20255;-89
2021/04/25 09:15:11;;;;;;;2.07;1.30;;;9.90;39.70;;;;;;5054369;28;20557;-89
2021/04/25 09:18:13;;;;;;;1.90;1.43;;;9.80;41.80;;;;;;5054062;28;20173;-89
2021/04/25 09:20:50;;;;;;;3.37;1.33;;;9.40;41.10;;;;;;5017076;28;20705;-88
2021/04/25 09:23:22;;;;;;;2.00;1.50;;;9.40;42.80;;;;;;5049395;28;20644;-88
2021/04/25 09:25:58;;;;;;;3.90;2.13;;;9.40;43.40;;;;;;5054437;28;20183;-88
2021/04/25 09:28:24;;;;;;;3.90;1.50;;;9.20;44.00;;;;;;5053980;28;20189;-90
2021/04/25 09:31:04;;;;;;;5.43;1.60;;;9.30;43.50;;;;;;5055100;28;20196;-90
2021/04/25 09:33:57;;;;;;;4.57;1.40;;;9.50;45.30;;;;;;5055103;28;20199;-89
2021/04/25 09:36:27;;;;;;;2.80;1.30;;;9.70;43.70;;;;;;5053497;28;20223;-89
2021/04/25 09:38:54;;;;;;;5.93;1.40;;;9.80;43.20;;;;;;5055116;28;20349;-90
2021/04/25 09:41:28;;;;;;;1.43;1.27;;;10.00;40.50;;;;;;5055255;28;20193;-90
2021/04/25 09:43:53;;;;;;;2.13;1.40;;;9.80;40.70;;;;;;5054818;28;20213;-90
2021/04/25 09:46:19;;;;;;;1.20;1.10;;;9.60;41.60;;;;;;5054620;28;20180;-90
2021/04/25 09:48:45;;;;;;;3.07;1.40;;;9.40;41.10;;;;;;5055669;28;20185;-90
2021/04/25 09:51:22;;;;;;;2.50;1.30;;;9.40;42.60;;;;;;5056285;28;20187;-89
2021/04/25 09:53:54;;;;;;;1.40;1.30;;;9.20;42.90;;;;;;5055816;28;20645;-90
2021/04/25 09:56:35;;;;;;;3.20;1.17;;;9.20;42.80;;;;;;5054777;28;20172;-90
2021/04/25 09:59:02;;;;;;;3.83;1.20;;;9.10;41.10;;;;;;5053902;28;20671;-90
2021/04/25 10:01:35;;;;;;;2.10;1.47;;;9.20;42.40;;;;;;5053397;28;20240;-89
2021/04/25 10:04:03;;;;;;;1.57;1.20;;;9.30;42.10;;;;;;5055120;28;20156;-89
2021/04/25 10:06:48;;;;;;;4.17;1.20;;;9.30;40.90;;;;;;5054942;28;20245;-90
2021/04/25 10:09:19;;;;;;;1.63;1.13;;;9.20;37.00;;;;;;5053843;28;20171;-89
2021/04/25 10:11:46;;;;;;;1.47;1.13;;;9.30;38.60;;;;;;5053760;28;20212;-89
2021/04/25 10:14:14;;;;;;;1.43;1.20;;;9.30;38.70;;;;;;5052859;28;20203;-89
2021/04/25 10:16:41;;;;;;;1.33;1.20;;;9.20;37.30;;;;;;5053287;28;20645;-89
2021/04/25 10:19:08;;;;;;;2.40;1.30;;;9.10;40.50;;;;;;5053475;28;20575;-88
2021/04/25 10:21:34;;;;;;;3.63;1.20;;;9.30;41.60;;;;;;5052701;28;20236;-89
2021/04/25 10:24:02;;;;;;;1.50;1.30;;;9.90;38.20;;;;;;5053818;28;20165;-89
2021/04/25 10:26:29;;;;;;;2.93;2.10;;;10.40;38.50;;;;;;5052605;28;20183;-89
2021/04/25 10:28:57;;;;;;;1.23;1.13;;;10.60;33.70;;;;;;5052580;28;20207;-89
2021/04/25 10:31:31;;;;;;;1.07;1.07;;;10.40;35.00;;;;;;5052262;28;20219;-89
2021/04/25 10:34:19;;;;;;;3.47;1.30;;;10.30;36.00;;;;;;5053693;28;20176;-89
2021/04/25 10:36:50;;;;;;;1.60;1.10;;;10.10;35.50;;;;;;5053765;28;20668;-89
2021/04/25 10:39:41;;;;;;;1.60;1.30;;;9.70;35.90;;;;;;5052404;28;20223;-89
2021/04/25 10:42:16;;;;;;;3.30;1.30;;;9.60;37.70;;;;;;5052742;28;20248;-88
2021/04/25 10:45:02;;;;;;;4.30;1.17;;;9.40;38.20;;;;;;5053777;28;20719;-89
2021/04/25 10:47:38;;;;;;;1.60;1.20;;;9.80;36.00;;;;;;5052426;28;20192;-88
2021/04/25 10:50:13;;;;;;;2.20;1.07;;;10.30;36.40;;;;;;5053661;28;20570;-89
2021/04/25 10:52:40;;;;;;;2.23;1.30;;;10.60;36.80;;;;;;5053597;28;20172;-89
2021/04/25 10:55:20;;;;;;;1.83;1.00;;;11.00;36.20;;;;;;5052506;28;20195;-89
2021/04/25 10:58:02;;;;;;;1.17;0.90;;;11.00;33.90;;;;;;5052313;28;20167;-89
2021/04/25 11:03:00;;;;;;;4.23;1.40;;;11.10;31.50;;;;;;5054707;28;20584;-88
2021/04/25 11:05:38;;;;;;;3.00;1.17;;;11.10;31.80;;;;;;5055103;28;20600;-88
2021/04/25 11:08:13;;;;;;;1.23;1.00;;;11.10;33.40;;;;;;5053160;28;20176;-89
2021/04/25 11:10:52;;;;;;;2.70;1.20;;;11.70;32.80;;;;;;5152564;22;20235;-87
2021/04/25 11:16:09;;;;;;;1.20;1.07;;;10.90;36.00;;;;;;5053224;28;20259;-87
2021/04/25 11:18:53;;;;;;;1.20;1.07;;;11.10;35.30;;;;;;5052925;28;20714;-87
2021/04/25 11:24:13;;;;;;;3.77;1.33;;;11.40;32.10;;;;;;5053204;28;20244;-87
2021/04/25 11:26:40;;;;;;;3.50;1.00;;;11.70;31.50;;;;;;5053044;28;20205;-87
2021/04/25 11:29:09;;;;;;;1.40;0.90;;;11.50;30.10;;;;;;5055879;28;20179;-87
2021/04/25 11:31:51;;;;;;;3.90;1.00;;;11.60;30.00;;;;;;5056780;28;20184;-87
2021/04/25 11:34:31;;;;;;;2.30;1.00;;;11.40;28.60;;;;;;5055553;28;20628;-87
2021/04/25 11:37:06;;;;;;;0.90;0.90;;;11.30;28.40;;;;;;5055206;28;20168;-87
2021/04/25 11:39:33;;;;;;;2.00;1.10;;;11.80;30.80;;;;;;5055290;28;20192;-87
2021/04/25 11:42:02;;;;;;;7.40;2.17;;;12.40;29.60;;;;;;5056307;28;20279;-86
2021/04/25 11:44:31;;;;;;;3.17;1.00;;;11.90;29.60;;;;;;5056761;28;20165;-86
2021/04/25 11:46:58;;;;;;;1.57;1.20;;;11.70;31.40;;;;;;5056600;28;20174;-87
2021/04/25 11:49:39;;;;;;;2.30;1.00;;;11.50;29.80;;;;;;5055357;28;20254;-87
2021/04/25 11:52:13;;;;;;;1.00;0.90;;;11.60;30.90;;;;;;5055194;28;20595;-87
2021/04/25 11:54:39;;;;;;;7.33;1.00;;;11.90;31.40;;;;;;5056297;28;20187;-88
2021/04/25 11:57:17;;;;;;;1.00;0.70;;;12.50;30.20;;;;;;5054774;28;20187;-87
2021/04/25 11:59:54;;;;;;;1.93;0.90;;;12.80;26.60;;;;;;5054892;28;20561;-86
2021/04/25 12:02:22;;;;;;;1.80;0.80;;;12.20;28.60;;;;;;5054842;28;20195;-86
2021/04/25 12:04:49;;;;;;;1.00;0.80;;;12.00;28.10;;;;;;5054906;28;20176;-85
2021/04/25 12:07:46;;;;;;;1.13;0.80;;;11.90;28.10;;;;;;5054484;28;20172;-87
2021/04/25 12:10:11;;;;;;;6.17;1.30;;;12.10;29.50;;;;;;5056072;28;20622;-86
2021/04/25 12:12:53;;;;;;;1.73;0.80;;;12.30;30.00;;;;;;5057343;28;20222;-86
2021/04/25 12:15:19;;;;;;;4.53;1.10;;;12.40;30.50;;;;;;5057922;28;20630;-86
2021/04/25 12:17:55;;;;;;;0.87;0.80;;;12.30;30.20;;;;;;5055905;28;20175;-87
2021/04/25 12:20:21;;;;;;;1.30;0.60;;;12.50;31.20;;;;;;5055501;28;20267;-85
2021/04/25 12:22:48;;;;;;;0.80;0.80;;;12.20;30.60;;;;;;5055802;28;20172;-85
2021/04/25 12:25:15;;;;;;;2.67;1.20;;;11.90;30.70;;;;;;5054944;28;20179;-87
2021/04/25 12:27:58;;;;;;;1.30;1.00;;;12.50;31.30;;;;;;5054741;28;20259;-86
2021/04/25 12:30:29;;;;;;;0.93;0.83;;;13.10;29.00;;;;;;5054572;28;20182;-87
2021/04/25 12:33:12;;;;;;;1.83;0.90;;;13.40;28.10;;;;;;5053897;28;20168;-86
2021/04/25 12:35:49;;;;;;;0.93;0.80;;;13.60;26.70;;;;;;5055864;28;20165;-89
2021/04/25 12:38:21;;;;;;;1.03;0.60;;;14.10;29.10;;;;;;5054129;28;20204;-90
2021/04/25 12:41:14;;;;;;;1.60;0.80;;;14.10;27.20;;;;;;5055161;28;20196;-89
2021/04/25 12:43:45;;;;;;;1.27;0.70;;;13.40;25.60;;;;;;5052081;28;20650;-88
2021/04/25 12:46:14;;;;;;;2.73;1.00;;;12.60;28.90;;;;;;5053777;28;20525;-88
2021/04/25 12:48:54;;;;;;;1.03;0.60;;;12.30;31.20;;;;;;5053674;28;20173;-87
2021/04/25 12:51:29;;;;;;;2.30;0.80;;;12.10;31.00;;;;;;5053829;28;20665;-88
2021/04/25 12:53:58;;;;;;;1.63;0.80;;;12.30;29.80;;;;;;5054078;28;20172;-89
2021/04/25 12:56:34;;;;;;;1.27;0.63;;;13.00;28.40;;;;;;5054448;28;20590;-87
2021/04/25 12:59:02;;;;;;;2.47;0.80;;;13.00;26.00;;;;;;5054364;28;20635;-87
2021/04/25 13:01:29;;;;;;;1.90;0.87;;;13.50;29.00;;;;;;5053695;28;20308;-87
2021/04/25 13:03:55;;;;;;;2.33;0.90;;;13.70;27.20;;;;;;5053667;28;20194;-87
2021/04/25 13:06:31;;;;;;;0.87;0.80;;;13.50;28.50;;;;;;5053782;28;20168;-87